Time;durP1;ratioP1;P1;durP2;ratioP2;P2;SDS_P1;SDS_P2;PMS_P1;PMS_P2;Temp;Humidity;BMP_temperature;BMP_pressure;BME280_temperature;BME280_humidity;BME280_pressure;Samples;Min_cycle;Max_cycle;Signal;HPM_P1;HPM_P2
2021/12/01 00:01:03;;;;;;;8.83;6.50;;;;;;;;;;5009704;28;20731;-73
2021/12/01 00:03:50;;;;;;;9.97;6.03;;;;;;;;;;5007249;28;20718;-73
2021/12/01 00:06:37;;;;;;;6.57;5.70;;;;;;;;;;5004571;28;20236;-73
2021/12/01 00:09:25;;;;;;;6.17;5.40;;;;;;;;;;5009413;28;20202;-73
2021/12/01 00:12:12;;;;;;;7.10;5.50;;;;;;;;;;5010310;28;20202;-73
2021/12/01 00:14:59;;;;;;;6.30;5.63;;;;;;;;;;5009666;28;20213;-73
2021/12/01 00:17:48;;;;;;;6.43;5.60;;;;;;;;;;5009495;28;20210;-73
2021/12/01 00:20:36;;;;;;;8.03;6.03;;;;;;;;;;5009114;28;20202;-73
2021/12/01 00:23:23;;;;;;;7.63;5.57;;;;;;;;;;4989489;28;20291;-73
2021/12/01 00:26:10;;;;;;;7.13;5.73;;;;;;;;;;4989739;28;20264;-73
2021/12/01 00:28:57;;;;;;;6.30;4.93;;;;;;;;;;4989710;28;20288;-73
2021/12/01 00:31:44;;;;;;;6.87;5.13;;;;;;;;;;4999234;28;20248;-73
2021/12/01 00:34:33;;;;;;;6.17;5.30;;;;;;;;;;5013330;28;20688;-73
2021/12/01 00:37:20;;;;;;;7.23;5.50;;;;;;;;;;5005451;28;20738;-73
2021/12/01 00:40:09;;;;;;;6.73;5.13;;;;;;;;;;4999397;28;20291;-73
2021/12/01 00:42:56;;;;;;;6.27;5.13;;;;;;;;;;5014018;28;20207;-73
2021/12/01 00:45:49;;;;;;;5.80;5.10;;;;;;;;;;5013461;28;20227;-73
2021/12/01 00:48:36;;;;;;;6.57;5.33;;;;;;;;;;5014430;28;20205;-73
2021/12/01 00:51:24;;;;;;;5.27;4.77;;;;;;;;;;5013522;28;20744;-73
2021/12/01 00:54:11;;;;;;;5.17;4.67;;;;;;;;;;5012720;28;20288;-73
2021/12/01 00:56:58;;;;;;;5.30;4.80;;;;;;;;;;5013330;28;20233;-73
2021/12/01 00:59:45;;;;;;;5.17;4.67;;;;;;;;;;5012943;28;20248;-73
2021/12/01 01:02:33;;;;;;;5.07;4.60;;;;;;;;;;5013181;28;20206;-73
2021/12/01 01:05:20;;;;;;;5.23;4.73;;;;;;;;;;5009687;28;20335;-73
2021/12/01 01:08:09;;;;;;;4.63;4.23;;;;;;;;;;5012858;28;20292;-74
2021/12/01 01:17:07;;;;;;;4.80;4.30;;;;;;;;;;5012449;28;20201;-73
2021/12/01 01:19:54;;;;;;;4.20;3.80;;;;;;;;;;5012924;28;20214;-73
2021/12/01 01:22:41;;;;;;;4.40;4.03;;;;;;;;;;5013733;28;20283;-73
2021/12/01 01:25:31;;;;;;;4.17;3.77;;;;;;;;;;5012373;28;20228;-73
2021/12/01 01:28:18;;;;;;;4.20;3.87;;;;;;;;;;5012768;28;20287;-73
2021/12/01 01:31:05;;;;;;;4.30;3.90;;;;;;;;;;5012539;28;20345;-73
2021/12/01 01:33:52;;;;;;;4.50;4.10;;;;;;;;;;5012765;28;20232;-73
2021/12/01 01:36:39;;;;;;;4.20;3.90;;;;;;;;;;5012391;28;20303;-73
2021/12/01 01:39:26;;;;;;;4.03;3.70;;;;;;;;;;5007972;28;20292;-73
2021/12/01 01:42:15;;;;;;;4.30;4.00;;;;;;;;;;5010737;28;20569;-73
2021/12/01 01:45:02;;;;;;;3.70;3.50;;;;;;;;;;5012337;28;20367;-73
2021/12/01 01:47:58;;;;;;;3.90;3.60;;;;;;;;;;5012228;28;20331;-73
2021/12/01 01:50:45;;;;;;;3.90;3.60;;;;;;;;;;5011619;28;20194;-73
2021/12/01 01:53:34;;;;;;;3.83;3.53;;;;;;;;;;5012095;28;20204;-73
2021/12/01 01:56:22;;;;;;;3.87;3.57;;;;;;;;;;5012506;28;20209;-73
2021/12/01 01:59:11;;;;;;;3.77;3.47;;;;;;;;;;5011518;28;20311;-73
2021/12/01 02:01:58;;;;;;;3.80;3.50;;;;;;;;;;5012127;28;20299;-73
2021/12/01 02:04:45;;;;;;;3.20;3.00;;;;;;;;;;5010100;28;20847;-73
2021/12/01 02:07:32;;;;;;;3.70;3.40;;;;;;;;;;5011102;28;20741;-73
2021/12/01 02:10:19;;;;;;;3.47;3.27;;;;;;;;;;5010497;28;20667;-73
2021/12/01 02:13:06;;;;;;;3.47;3.23;;;;;;;;;;5011052;28;20200;-73
2021/12/01 02:15:56;;;;;;;3.50;3.20;;;;;;;;;;5011621;28;20275;-73
2021/12/01 02:18:43;;;;;;;3.60;3.30;;;;;;;;;;5011816;28;20229;-73
2021/12/01 02:21:32;;;;;;;2.93;2.73;;;;;;;;;;5010886;28;20585;-73
2021/12/01 02:24:21;;;;;;;3.47;3.17;;;;;;;;;;5010962;28;20351;-73
2021/12/01 02:27:08;;;;;;;3.40;3.20;;;;;;;;;;5011706;28;20209;-73
2021/12/01 02:29:55;;;;;;;3.00;2.80;;;;;;;;;;5011506;28;20197;-73
2021/12/01 02:32:42;;;;;;;3.17;2.97;;;;;;;;;;5011531;28;20238;-73
2021/12/01 02:35:29;;;;;;;2.83;2.73;;;;;;;;;;5011815;28;20332;-73
2021/12/01 02:38:19;;;;;;;2.83;2.63;;;;;;;;;;5004932;28;20277;-73
2021/12/01 02:41:06;;;;;;;2.97;2.30;;;;;;;;;;5007081;28;20249;-73
2021/12/01 02:43:53;;;;;;;3.00;2.80;;;;;;;;;;5012216;28;20287;-73
2021/12/01 02:46:40;;;;;;;2.80;2.60;;;;;;;;;;5013228;28;20263;-73
2021/12/01 02:49:28;;;;;;;2.80;2.60;;;;;;;;;;5001743;28;20237;-73
2021/12/01 02:52:15;;;;;;;2.50;2.40;;;;;;;;;;5011256;28;20217;-74
2021/12/01 02:55:08;;;;;;;2.63;2.50;;;;;;;;;;4996091;28;20209;-73
2021/12/01 02:57:55;;;;;;;2.50;2.40;;;;;;;;;;4992327;28;20296;-74
2021/12/01 03:00:42;;;;;;;2.53;2.43;;;;;;;;;;4991878;28;20281;-73
2021/12/01 03:03:29;;;;;;;2.60;2.40;;;;;;;;;;4994020;28;20294;-73
2021/12/01 03:06:18;;;;;;;2.43;2.33;;;;;;;;;;5008912;28;20639;-73
2021/12/01 03:09:06;;;;;;;2.27;2.17;;;;;;;;;;5010124;28;20290;-73
2021/12/01 03:11:55;;;;;;;2.10;2.00;;;;;;;;;;5010554;28;20197;-73
2021/12/01 03:14:42;;;;;;;2.30;2.20;;;;;;;;;;5011420;28;20340;-73
2021/12/01 03:17:31;;;;;;;2.40;2.30;;;;;;;;;;5010937;28;20628;-73
2021/12/01 03:20:20;;;;;;;2.43;2.23;;;;;;;;;;5010842;28;20209;-73
2021/12/01 03:23:08;;;;;;;2.10;2.00;;;;;;;;;;5011945;28;20305;-73
2021/12/01 03:25:55;;;;;;;2.00;1.90;;;;;;;;;;5010999;28;20286;-73
2021/12/01 03:28:44;;;;;;;1.97;1.87;;;;;;;;;;5011366;28;20280;-73
2021/12/01 03:31:31;;;;;;;1.87;1.77;;;;;;;;;;5010773;28;20209;-73
2021/12/01 03:34:22;;;;;;;1.97;1.87;;;;;;;;;;5010672;28;20212;-73
2021/12/01 03:37:09;;;;;;;1.97;1.87;;;;;;;;;;5011945;28;20351;-73
2021/12/01 03:39:58;;;;;;;1.87;1.77;;;;;;;;;;5010951;28;20338;-73
2021/12/01 03:42:46;;;;;;;1.60;1.60;;;;;;;;;;5010581;28;20228;-73
2021/12/01 03:45:34;;;;;;;1.67;1.57;;;;;;;;;;5011108;28;20261;-73
2021/12/01 03:48:22;;;;;;;1.67;1.57;;;;;;;;;;5010297;28;20284;-73
2021/12/01 03:51:09;;;;;;;1.73;1.63;;;;;;;;;;5010755;28;20205;-73
2021/12/01 03:53:57;;;;;;;2.03;1.93;;;;;;;;;;5010567;28;20197;-73
2021/12/01 03:56:44;;;;;;;1.80;1.70;;;;;;;;;;5011080;28;20197;-73
2021/12/01 03:59:31;;;;;;;1.77;1.63;;;;;;;;;;5010964;28;20311;-73
2021/12/01 04:02:20;;;;;;;1.60;1.40;;;;;;;;;;5010743;28;20296;-73
2021/12/01 04:05:08;;;;;;;1.33;1.33;;;;;;;;;;5008913;28;20383;-73
2021/12/01 04:07:56;;;;;;;1.57;1.50;;;;;;;;;;5014825;28;20632;-73
2021/12/01 04:10:43;;;;;;;1.30;1.30;;;;;;;;;;5014969;28;20798;-73
2021/12/01 04:13:31;;;;;;;1.20;1.20;;;;;;;;;;5014496;28;20215;-73
2021/12/01 04:16:18;;;;;;;1.70;1.70;;;;;;;;;;5014669;28;20324;-73
2021/12/01 04:19:06;;;;;;;1.30;1.30;;;;;;;;;;5014268;28;20296;-73
2021/12/01 04:21:53;;;;;;;1.30;1.30;;;;;;;;;;5014823;28;20687;-73
2021/12/01 04:24:41;;;;;;;1.30;1.20;;;;;;;;;;5013976;28;20205;-73
2021/12/01 04:27:28;;;;;;;1.33;1.33;;;;;;;;;;5015653;28;20252;-73
2021/12/01 04:30:18;;;;;;;1.30;1.30;;;;;;;;;;5014171;28;20324;-73
2021/12/01 04:33:05;;;;;;;1.37;1.30;;;;;;;;;;5013723;28;20869;-73
2021/12/01 04:35:53;;;;;;;1.47;1.47;;;;;;;;;;5013852;28;20284;-72
2021/12/01 04:38:40;;;;;;;1.53;1.43;;;;;;;;;;5012453;28;20588;-73
2021/12/01 04:41:29;;;;;;;1.20;1.20;;;;;;;;;;5012906;28;20288;-73
2021/12/01 04:44:17;;;;;;;1.30;1.20;;;;;;;;;;5012805;28;20209;-73
2021/12/01 04:47:09;;;;;;;1.13;1.13;;;;;;;;;;5013496;28;20549;-73
2021/12/01 04:49:57;;;;;;;1.40;1.30;;;;;;;;;;5013708;28;20285;-73
2021/12/01 04:52:46;;;;;;;1.20;1.20;;;;;;;;;;5014146;28;20201;-73
2021/12/01 04:55:34;;;;;;;0.97;0.97;;;;;;;;;;5013827;28;20198;-73
2021/12/01 04:58:21;;;;;;;1.10;1.10;;;;;;;;;;5014051;28;20242;-73
2021/12/01 05:01:08;;;;;;;1.07;1.07;;;;;;;;;;5013868;28;20292;-73
2021/12/01 05:03:55;;;;;;;1.30;1.20;;;;;;;;;;5012088;28;20253;-73
2021/12/01 05:06:42;;;;;;;1.00;1.00;;;;;;;;;;5012989;28;20276;-73
2021/12/01 05:09:30;;;;;;;1.10;1.10;;;;;;;;;;5013893;28;20283;-73
2021/12/01 05:12:17;;;;;;;1.10;1.10;;;;;;;;;;5012877;28;20217;-73
2021/12/01 05:15:05;;;;;;;0.80;0.80;;;;;;;;;;5013384;28;20250;-72
2021/12/01 05:17:52;;;;;;;1.00;1.00;;;;;;;;;;5012572;28;20288;-73
2021/12/01 05:20:39;;;;;;;1.17;1.17;;;;;;;;;;5013273;28;20209;-73
2021/12/01 05:23:26;;;;;;;1.03;1.03;;;;;;;;;;5013254;28;20217;-74
2021/12/01 05:26:15;;;;;;;1.40;1.40;;;;;;;;;;5013487;28;20283;-73
2021/12/01 05:29:02;;;;;;;1.47;1.37;;;;;;;;;;5013506;28;20284;-74
2021/12/01 05:31:49;;;;;;;1.07;1.07;;;;;;;;;;5013795;28;20205;-73
2021/12/01 05:34:36;;;;;;;1.10;1.10;;;;;;;;;;5013127;28;20254;-74
2021/12/01 05:37:23;;;;;;;1.30;1.20;;;;;;;;;;5013595;28;20201;-73
2021/12/01 05:40:12;;;;;;;1.20;1.20;;;;;;;;;;5012630;28;20239;-73
2021/12/01 05:43:00;;;;;;;1.27;1.27;;;;;;;;;;5012882;28;20205;-73
2021/12/01 05:45:48;;;;;;;1.23;1.23;;;;;;;;;;5012570;28;20704;-74
2021/12/01 05:48:35;;;;;;;1.20;1.20;;;;;;;;;;5013734;28;20624;-74
2021/12/01 05:51:22;;;;;;;1.10;1.10;;;;;;;;;;5011608;28;20197;-74
2021/12/01 05:54:09;;;;;;;1.10;1.10;;;;;;;;;;5011749;28;20288;-74
2021/12/01 05:56:56;;;;;;;1.00;1.00;;;;;;;;;;5011174;28;20209;-74
2021/12/01 05:59:44;;;;;;;0.90;0.90;;;;;;;;;;5012303;28;20253;-73
2021/12/01 06:02:31;;;;;;;1.20;1.20;;;;;;;;;;5012352;28;20406;-74
2021/12/01 06:05:19;;;;;;;1.43;1.40;;;;;;;;;;5011963;28;20266;-74
2021/12/01 06:08:06;;;;;;;1.20;1.20;;;;;;;;;;5012115;28;20240;-73
2021/12/01 06:10:53;;;;;;;1.23;1.23;;;;;;;;;;5012745;28;20209;-73
2021/12/01 06:13:41;;;;;;;0.77;0.77;;;;;;;;;;5012511;28;20249;-74
2021/12/01 06:16:29;;;;;;;1.23;1.23;;;;;;;;;;5012801;28;20205;-74
2021/12/01 06:19:16;;;;;;;1.40;1.30;;;;;;;;;;5012059;28;20685;-73
2021/12/01 06:22:04;;;;;;;1.10;1.10;;;;;;;;;;5013912;28;20255;-73
2021/12/01 06:24:51;;;;;;;1.30;1.30;;;;;;;;;;5012403;28;20244;-73
2021/12/01 06:27:38;;;;;;;1.20;1.20;;;;;;;;;;5011790;28;20214;-73
2021/12/01 06:30:26;;;;;;;1.20;1.20;;;;;;;;;;5011906;28;20209;-73
2021/12/01 06:33:14;;;;;;;1.23;1.23;;;;;;;;;;5012145;28;20206;-73
2021/12/01 06:36:01;;;;;;;1.33;1.30;;;;;;;;;;5011882;28;20287;-73
2021/12/01 06:38:48;;;;;;;1.47;1.47;;;;;;;;;;5011154;28;20279;-74
2021/12/01 06:41:36;;;;;;;1.13;1.13;;;;;;;;;;5011322;28;20291;-73
2021/12/01 06:44:24;;;;;;;1.20;1.20;;;;;;;;;;5011344;28;20250;-73
2021/12/01 06:47:11;;;;;;;1.30;1.20;;;;;;;;;;5012034;28;20229;-73
2021/12/01 06:50:01;;;;;;;1.00;1.00;;;;;;;;;;5011318;28;20209;-73
2021/12/01 06:52:48;;;;;;;1.10;1.10;;;;;;;;;;5011787;28;20198;-73
2021/12/01 06:55:35;;;;;;;1.00;1.00;;;;;;;;;;5011539;28;20279;-73
2021/12/01 06:58:22;;;;;;;1.10;1.10;;;;;;;;;;5011590;28;20251;-73
2021/12/01 07:01:10;;;;;;;1.30;1.30;;;;;;;;;;5011746;28;20209;-73
2021/12/01 07:03:57;;;;;;;1.10;1.10;;;;;;;;;;5008349;28;20344;-73
2021/12/01 07:06:45;;;;;;;1.20;1.20;;;;;;;;;;5011099;28;20307;-73
2021/12/01 07:09:33;;;;;;;1.00;1.00;;;;;;;;;;5010904;28;20233;-73
2021/12/01 07:12:20;;;;;;;1.07;1.07;;;;;;;;;;5010793;28;20718;-73
2021/12/01 07:15:08;;;;;;;1.13;1.13;;;;;;;;;;5010929;28;20201;-74
2021/12/01 07:17:55;;;;;;;1.20;1.20;;;;;;;;;;5011404;28;20702;-73
2021/12/01 07:20:45;;;;;;;1.17;1.17;;;;;;;;;;5012878;28;20201;-73
2021/12/01 07:23:33;;;;;;;1.40;1.30;;;;;;;;;;5011398;28;20220;-73
2021/12/01 07:26:20;;;;;;;1.60;1.03;;;;;;;;;;5010514;28;20578;-73
2021/12/01 07:29:07;;;;;;;1.00;1.00;;;;;;;;;;5010930;28;20628;-74
2021/12/01 07:31:54;;;;;;;1.37;1.27;;;;;;;;;;5010537;28;20209;-74
2021/12/01 07:34:42;;;;;;;0.90;0.90;;;;;;;;;;5010498;28;20229;-74
2021/12/01 07:37:29;;;;;;;0.90;0.90;;;;;;;;;;5010325;28;20232;-73
2021/12/01 07:40:17;;;;;;;1.00;1.00;;;;;;;;;;5009969;28;20678;-73
2021/12/01 07:43:04;;;;;;;1.10;1.10;;;;;;;;;;5010295;28;20275;-74
2021/12/01 07:45:51;;;;;;;1.33;1.33;;;;;;;;;;5010454;28;20302;-74
2021/12/01 07:48:38;;;;;;;1.30;1.20;;;;;;;;;;5010707;28;20250;-74
2021/12/01 07:51:25;;;;;;;1.20;1.10;;;;;;;;;;5010718;28;20632;-74
2021/12/01 07:54:12;;;;;;;0.80;0.80;;;;;;;;;;5009985;28;20205;-74
2021/12/01 07:57:01;;;;;;;1.17;1.17;;;;;;;;;;5010414;28;20194;-74
2021/12/01 07:59:48;;;;;;;1.30;1.30;;;;;;;;;;5009710;28;20278;-74
2021/12/01 08:02:36;;;;;;;1.53;1.53;;;;;;;;;;5009621;28;20208;-74
2021/12/01 08:05:23;;;;;;;1.23;1.23;;;;;;;;;;5008548;28;20716;-75
2021/12/01 08:08:10;;;;;;;1.43;1.40;;;;;;;;;;4998789;28;20206;-74
2021/12/01 08:10:57;;;;;;;1.80;1.70;;;;;;;;;;4994676;28;20279;-74
2021/12/01 08:13:46;;;;;;;1.43;1.37;;;;;;;;;;4990862;28;20220;-74
2021/12/01 08:16:33;;;;;;;1.53;1.43;;;;;;;;;;4990919;28;20230;-73
2021/12/01 08:19:21;;;;;;;1.43;1.33;;;;;;;;;;4990527;28;20264;-73
2021/12/01 08:22:09;;;;;;;1.40;1.40;;;;;;;;;;4990847;28;20221;-73
2021/12/01 08:24:57;;;;;;;1.50;1.50;;;;;;;;;;4990557;28;20237;-73
2021/12/01 08:27:44;;;;;;;1.50;1.40;;;;;;;;;;4990574;28;20226;-73
2021/12/01 08:30:33;;;;;;;2.40;1.80;;;;;;;;;;4990359;28;20320;-73
2021/12/01 08:33:20;;;;;;;1.53;1.47;;;;;;;;;;4990668;28;20639;-73
2021/12/01 08:36:07;;;;;;;1.77;1.67;;;;;;;;;;4989971;28;20205;-73
2021/12/01 08:38:55;;;;;;;1.47;1.37;;;;;;;;;;4995329;28;20292;-72
2021/12/01 08:41:41;;;;;;;1.57;1.47;;;;;;;;;;5009847;28;20216;-73
2021/12/01 08:44:28;;;;;;;1.60;1.50;;;;;;;;;;5009860;28;20248;-73
2021/12/01 08:47:22;;;;;;;1.40;1.40;;;;;;;;;;5009840;28;20285;-73
2021/12/01 08:50:10;;;;;;;1.70;1.60;;;;;;;;;;4990976;28;20198;-73
2021/12/01 08:52:59;;;;;;;1.67;1.57;;;;;;;;;;4990841;28;20835;-73
2021/12/01 08:55:47;;;;;;;1.37;1.37;;;;;;;;;;4993771;28;20292;-74
2021/12/01 08:58:34;;;;;;;1.70;1.60;;;;;;;;;;4993861;28;20682;-73
2021/12/01 09:01:20;;;;;;;1.67;1.57;;;;;;;;;;4998583;28;20204;-73
2021/12/01 09:04:09;;;;;;;1.63;1.53;;;;;;;;;;4994768;28;20241;-73
2021/12/01 09:06:57;;;;;;;1.50;1.40;;;;;;;;;;4999132;28;20296;-73
2021/12/01 09:09:44;;;;;;;1.30;1.30;;;;;;;;;;5012437;28;20206;-72
2021/12/01 09:12:30;;;;;;;1.37;1.37;;;;;;;;;;5013226;28;20246;-72
2021/12/01 09:15:17;;;;;;;1.17;1.17;;;;;;;;;;5012938;28;20224;-74
2021/12/01 09:18:05;;;;;;;1.43;1.37;;;;;;;;;;5012385;28;20612;-75
2021/12/01 09:20:53;;;;;;;1.43;1.33;;;;;;;;;;5012660;28;20233;-72
2021/12/01 09:23:40;;;;;;;1.20;1.20;;;;;;;;;;5010178;28;20680;-73
2021/12/01 09:26:27;;;;;;;3.10;1.30;;;;;;;;;;5011802;28;20229;-73
2021/12/01 09:29:14;;;;;;;1.00;1.00;;;;;;;;;;5010386;28;20665;-73
2021/12/01 09:32:02;;;;;;;1.00;1.00;;;;;;;;;;5012517;28;20240;-73
2021/12/01 09:34:49;;;;;;;1.10;1.10;;;;;;;;;;5012047;28;20293;-73
2021/12/01 09:37:38;;;;;;;1.40;1.40;;;;;;;;;;5009596;28;20618;-73
2021/12/01 09:40:25;;;;;;;1.50;1.17;;;;;;;;;;5010561;28;20213;-73
2021/12/01 09:43:13;;;;;;;1.40;1.40;;;;;;;;;;5011416;28;20339;-73
2021/12/01 09:46:04;;;;;;;0.87;0.87;;;;;;;;;;5011600;28;20210;-73
2021/12/01 09:48:51;;;;;;;1.17;1.17;;;;;;;;;;5011432;28;20214;-72
2021/12/01 09:51:38;;;;;;;1.37;1.37;;;;;;;;;;5012649;28;20228;-72
2021/12/01 09:54:27;;;;;;;1.03;1.03;;;;;;;;;;5011290;28;20289;-72
2021/12/01 09:57:14;;;;;;;1.30;1.30;;;;;;;;;;4996808;28;20210;-72
2021/12/01 10:00:01;;;;;;;1.00;1.00;;;;;;;;;;4992809;28;20317;-72
2021/12/01 10:02:48;;;;;;;1.20;1.10;;;;;;;;;;4992663;28;20697;-72
2021/12/01 10:05:53;;;;;;;1.10;1.10;;;;;;;;;;5011666;28;20210;-73
2021/12/01 10:08:42;;;;;;;0.97;0.97;;;;;;;;;;5011315;28;20206;-72
2021/12/01 10:11:32;;;;;;;1.03;1.03;;;;;;;;;;5011467;28;20237;-72
2021/12/01 10:14:21;;;;;;;1.40;1.30;;;;;;;;;;5011140;28;20281;-73
2021/12/01 10:17:08;;;;;;;2.00;1.90;;;;;;;;;;5010851;28;20206;-72
2021/12/01 10:20:10;;;;;;;2.13;2.03;;;;;;;;;;5010366;28;20201;-73
2021/12/01 10:23:09;;;;;;;2.27;2.17;;;;;;;;;;5010456;28;20204;-72
2021/12/01 10:25:56;;;;;;;1.90;1.80;;;;;;;;;;5011023;28;20319;-73
2021/12/01 10:28:46;;;;;;;2.10;2.00;;;;;;;;;;5011402;28;20213;-72
2021/12/01 10:31:37;;;;;;;1.63;1.57;;;;;;;;;;5011301;28;20301;-72
2021/12/01 10:34:27;;;;;;;2.10;2.00;;;;;;;;;;5009153;28;20226;-73
2021/12/01 10:37:18;;;;;;;1.90;1.80;;;;;;;;;;5010953;28;20193;-73
2021/12/01 10:40:09;;;;;;;1.90;1.80;;;;;;;;;;5010953;28;20341;-73
2021/12/01 10:42:59;;;;;;;1.80;1.70;;;;;;;;;;5011128;28;20205;-73
2021/12/01 10:45:48;;;;;;;1.80;1.70;;;;;;;;;;5010155;28;20206;-73
2021/12/01 10:48:36;;;;;;;1.53;1.43;;;;;;;;;;5011125;28;20232;-73
2021/12/01 10:51:33;;;;;;;1.60;1.60;;;;;;;;;;5009706;28;20743;-73
2021/12/01 10:54:21;;;;;;;1.37;1.30;;;;;;;;;;5006476;28;20225;-72
2021/12/01 10:57:21;;;;;;;1.40;1.30;;;;;;;;;;5010913;28;20597;-73
2021/12/01 11:00:14;;;;;;;1.27;1.27;;;;;;;;;;5009456;28;20724;-73
2021/12/01 11:03:10;;;;;;;1.37;1.30;;;;;;;;;;5011426;28;20205;-72
2021/12/01 11:05:58;;;;;;;1.20;1.20;;;;;;;;;;5006052;28;20241;-72
2021/12/01 11:08:49;;;;;;;1.37;1.27;;;;;;;;;;5009764;28;20357;-73
2021/12/01 11:11:39;;;;;;;1.40;1.40;;;;;;;;;;5011041;28;20201;-73
2021/12/01 11:14:26;;;;;;;1.40;1.40;;;;;;;;;;4993687;28;20277;-72
2021/12/01 11:17:16;;;;;;;1.00;1.00;;;;;;;;;;4989798;28;20203;-72
2021/12/01 11:20:05;;;;;;;1.27;1.23;;;;;;;;;;4990657;28;20202;-72
2021/12/01 11:22:52;;;;;;;1.23;1.17;;;;;;;;;;4990960;28;20210;-73
2021/12/01 11:25:39;;;;;;;1.20;1.10;;;;;;;;;;4992160;28;20202;-72
2021/12/01 11:28:30;;;;;;;1.20;1.20;;;;;;;;;;4990347;28;20225;-73
2021/12/01 11:31:19;;;;;;;0.90;0.90;;;;;;;;;;4991191;28;20215;-73
2021/12/01 11:34:09;;;;;;;1.20;1.00;;;;;;;;;;4991714;28;20277;-73
2021/12/01 11:36:58;;;;;;;1.20;1.10;;;;;;;;;;4991123;28;20210;-73
2021/12/01 11:39:45;;;;;;;1.00;1.00;;;;;;;;;;5007351;28;20206;-72
2021/12/01 11:42:33;;;;;;;2.07;1.20;;;;;;;;;;5008960;28;20220;-74
2021/12/01 11:45:20;;;;;;;1.00;1.00;;;;;;;;;;5009193;28;20209;-74
2021/12/01 11:48:11;;;;;;;1.00;1.00;;;;;;;;;;5010241;28;20217;-73
2021/12/01 11:51:08;;;;;;;0.90;0.90;;;;;;;;;;5009511;28;20307;-72
2021/12/01 11:54:04;;;;;;;1.10;1.10;;;;;;;;;;5010718;28;20210;-72
2021/12/01 11:56:55;;;;;;;0.90;0.90;;;;;;;;;;5010697;28;20347;-72
2021/12/01 11:59:47;;;;;;;0.70;0.70;;;;;;;;;;5008826;28;20253;-73
2021/12/01 12:02:36;;;;;;;2.00;1.47;;;;;;;;;;5007925;28;20721;-72
2021/12/01 12:05:27;;;;;;;1.40;1.30;;;;;;;;;;5007825;28;20244;-72
2021/12/01 12:08:59;;;;;;;2.20;2.10;;;;;;;;;;4999272;28;20651;-73
2021/12/01 12:11:48;;;;;;;3.53;2.53;;;;;;;;;;5000385;28;20216;-73
2021/12/01 12:14:36;;;;;;;6.10;3.10;;;;;;;;;;5008159;28;20212;-69
2021/12/01 12:17:34;;;;;;;5.43;3.20;;;;;;;;;;5010485;28;20197;-69
2021/12/01 12:20:24;;;;;;;7.57;3.83;;;;;;;;;;5009995;28;20247;-69
2021/12/01 12:23:12;;;;;;;6.67;3.63;;;;;;;;;;5010075;28;20209;-69
2021/12/01 12:26:00;;;;;;;7.60;3.90;;;;;;;;;;5010217;28;20229;-69
2021/12/01 12:28:47;;;;;;;3.90;3.50;;;;;;;;;;5012736;28;20240;-69
2021/12/01 12:31:34;;;;;;;5.60;3.50;;;;;;;;;;5012955;28;20244;-69
2021/12/01 12:34:23;;;;;;;4.13;3.40;;;;;;;;;;5012200;28;20266;-69
2021/12/01 12:37:21;;;;;;;5.93;3.27;;;;;;;;;;5010845;28;20209;-69
2021/12/01 12:40:13;;;;;;;5.27;3.23;;;;;;;;;;5012611;28;20276;-69
2021/12/01 12:43:09;;;;;;;3.90;3.43;;;;;;;;;;5014259;28;20221;-69
2021/12/01 12:46:07;;;;;;;4.57;3.47;;;;;;;;;;5013480;28;20298;-69
2021/12/01 12:48:55;;;;;;;4.27;3.30;;;;;;;;;;5014074;28;20225;-68
2021/12/01 12:51:42;;;;;;;2.73;2.53;;;;;;;;;;5013592;28;20201;-68
2021/12/01 12:54:28;;;;;;;3.60;2.90;;;;;;;;;;5013494;28;20267;-69
2021/12/01 12:57:16;;;;;;;4.03;2.80;;;;;;;;;;5013211;28;20741;-69
2021/12/01 13:00:22;;;;;;;2.40;2.30;;;;;;;;;;5013413;28;20282;-70
2021/12/01 13:03:30;;;;;;;2.53;2.33;;;;;;;;;;5011720;28;20236;-70
2021/12/01 13:06:27;;;;;;;2.23;2.13;;;;;;;;;;5010294;28;20292;-69
2021/12/01 13:09:17;;;;;;;2.50;2.30;;;;;;;;;;5012914;28;20233;-69
2021/12/01 13:12:04;;;;;;;2.40;2.20;;;;;;;;;;5013763;28;20306;-69
2021/12/01 13:14:51;;;;;;;2.10;2.00;;;;;;;;;;5013051;28;20252;-70
2021/12/01 13:17:45;;;;;;;2.00;1.90;;;;;;;;;;5013775;28;20677;-69
2021/12/01 13:20:35;;;;;;;2.00;1.90;;;;;;;;;;5012737;28;20863;-69
2021/12/01 13:23:24;;;;;;;1.93;1.83;;;;;;;;;;5012380;28;20237;-69
2021/12/01 13:26:13;;;;;;;2.10;1.90;;;;;;;;;;5012418;28;20284;-69
2021/12/01 13:29:04;;;;;;;1.60;1.50;;;;;;;;;;5008288;28;20231;-69
2021/12/01 13:31:51;;;;;;;1.90;1.80;;;;;;;;;;5013268;28;20213;-69
2021/12/01 13:34:39;;;;;;;1.20;1.20;;;;;;;;;;5011644;28;20236;-70
2021/12/01 13:37:26;;;;;;;1.70;1.60;;;;;;;;;;5011719;28;20634;-69
2021/12/01 13:40:14;;;;;;;1.30;1.30;;;;;;;;;;5011668;28;20378;-70
2021/12/01 13:43:01;;;;;;;1.70;1.60;;;;;;;;;;5012630;28;20213;-69
2021/12/01 13:45:55;;;;;;;1.40;1.40;;;;;;;;;;5009832;28;20477;-69
2021/12/01 13:48:55;;;;;;;1.37;1.30;;;;;;;;;;5009642;28;20287;-70
2021/12/01 13:51:49;;;;;;;1.20;1.20;;;;;;;;;;5012414;28;20216;-69
2021/12/01 13:54:37;;;;;;;1.77;1.67;;;;;;;;;;5012748;28;20205;-70
2021/12/01 13:57:24;;;;;;;1.40;1.30;;;;;;;;;;5011968;28;20204;-70
2021/12/01 14:00:12;;;;;;;1.17;1.17;;;;;;;;;;5012153;28;20287;-69
2021/12/01 14:03:00;;;;;;;1.13;1.13;;;;;;;;;;5011545;28;20225;-71
2021/12/01 14:05:50;;;;;;;1.40;1.30;;;;;;;;;;5009220;28;20248;-69
2021/12/01 14:08:40;;;;;;;1.13;1.13;;;;;;;;;;5010945;28;20251;-69
2021/12/01 14:11:30;;;;;;;1.20;1.20;;;;;;;;;;5011775;28;20209;-69
2021/12/01 14:14:18;;;;;;;1.20;1.20;;;;;;;;;;5011258;28;20229;-69
2021/12/01 14:17:06;;;;;;;1.00;1.00;;;;;;;;;;5011172;28;20218;-69
2021/12/01 14:19:56;;;;;;;1.03;1.03;;;;;;;;;;5010614;28;20197;-69
2021/12/01 14:22:45;;;;;;;1.30;1.30;;;;;;;;;;5011393;28;20669;-70
2021/12/01 14:25:34;;;;;;;1.30;1.20;;;;;;;;;;5011057;28;20205;-69
2021/12/01 14:28:24;;;;;;;0.93;0.93;;;;;;;;;;5011500;28;20225;-70
2021/12/01 14:31:17;;;;;;;0.80;0.80;;;;;;;;;;5010572;28;20213;-69
2021/12/01 14:34:07;;;;;;;0.80;0.80;;;;;;;;;;5011246;28;20208;-69
2021/12/01 14:36:54;;;;;;;1.07;1.07;;;;;;;;;;4994939;28;20276;-70
2021/12/01 14:39:41;;;;;;;0.80;0.80;;;;;;;;;;5008424;28;20609;-69
2021/12/01 14:42:30;;;;;;;0.77;0.77;;;;;;;;;;5010219;28;20285;-69
2021/12/01 14:45:19;;;;;;;0.83;0.83;;;;;;;;;;5011321;28;20208;-68
2021/12/01 14:48:08;;;;;;;1.00;1.00;;;;;;;;;;5011037;28;20282;-69
2021/12/01 14:50:56;;;;;;;0.70;0.70;;;;;;;;;;5003471;28;20292;-68
2021/12/01 14:53:43;;;;;;;0.87;0.87;;;;;;;;;;5010821;28;20620;-69
2021/12/01 14:56:30;;;;;;;1.87;1.00;;;;;;;;;;5004460;28;20237;-69
2021/12/01 14:59:19;;;;;;;0.77;0.77;;;;;;;;;;5009120;28;20721;-69
2021/12/01 15:02:18;;;;;;;0.70;0.70;;;;;;;;;;5002110;28;20343;-69
2021/12/01 15:05:14;;;;;;;0.70;0.70;;;;;;;;;;5007628;28;20241;-69
2021/12/01 15:08:08;;;;;;;0.70;0.70;;;;;;;;;;5011751;28;20609;-69
2021/12/01 15:11:00;;;;;;;0.80;0.80;;;;;;;;;;5009693;28;20221;-70
2021/12/01 15:13:48;;;;;;;1.33;0.60;;;;;;;;;;5010196;28;20241;-70
2021/12/01 15:16:37;;;;;;;0.80;0.80;;;;;;;;;;5010768;28;20260;-70
2021/12/01 15:19:25;;;;;;;0.70;0.70;;;;;;;;;;5010087;28;20233;-70
2021/12/01 15:22:13;;;;;;;0.87;0.87;;;;;;;;;;5010434;28;20206;-70
2021/12/01 15:25:00;;;;;;;0.67;0.67;;;;;;;;;;5010056;28;20216;-69
2021/12/01 15:27:47;;;;;;;0.60;0.60;;;;;;;;;;5010050;28;20217;-70
2021/12/01 15:30:35;;;;;;;0.60;0.60;;;;;;;;;;5009935;28;20391;-70
2021/12/01 15:33:23;;;;;;;0.60;0.60;;;;;;;;;;5010643;28;20209;-69
2021/12/01 15:36:10;;;;;;;0.50;0.50;;;;;;;;;;5010046;28;20279;-69
2021/12/01 15:38:57;;;;;;;0.60;0.60;;;;;;;;;;5010496;28;20198;-70
2021/12/01 15:41:45;;;;;;;0.60;0.60;;;;;;;;;;4991410;28;20276;-70
2021/12/01 15:44:35;;;;;;;0.60;0.60;;;;;;;;;;5003630;28;20221;-69
2021/12/01 15:47:23;;;;;;;0.70;0.70;;;;;;;;;;5010946;28;20198;-69
2021/12/01 15:50:12;;;;;;;0.80;0.63;;;;;;;;;;4990519;28;20226;-69
2021/12/01 15:53:00;;;;;;;0.77;0.77;;;;;;;;;;4990154;28;20628;-70
2021/12/01 15:55:47;;;;;;;0.80;0.80;;;;;;;;;;4993564;28;20209;-69
2021/12/01 15:58:34;;;;;;;0.70;0.70;;;;;;;;;;5010282;28;20208;-69
2021/12/01 16:01:21;;;;;;;0.50;0.50;;;;;;;;;;5011222;28;20361;-69
2021/12/01 16:04:08;;;;;;;0.70;0.70;;;;;;;;;;5014584;28;20237;-70
2021/12/01 16:06:57;;;;;;;0.50;0.50;;;;;;;;;;5015589;28;20299;-70
2021/12/01 16:09:44;;;;;;;0.80;0.80;;;;;;;;;;5016595;28;20719;-69
2021/12/01 16:12:31;;;;;;;0.53;0.53;;;;;;;;;;5016939;28;20661;-70
2021/12/01 16:15:19;;;;;;;0.50;0.50;;;;;;;;;;5016828;28;20712;-69
2021/12/01 16:18:07;;;;;;;0.60;0.60;;;;;;;;;;5017360;28;20205;-70
2021/12/01 16:20:54;;;;;;;0.60;0.60;;;;;;;;;;5016905;28;20243;-70
2021/12/01 16:23:45;;;;;;;0.70;0.70;;;;;;;;;;5016632;28;20237;-70
2021/12/01 16:26:32;;;;;;;0.60;0.60;;;;;;;;;;5016169;28;20218;-70
2021/12/01 16:29:20;;;;;;;1.03;0.83;;;;;;;;;;5016439;28;20314;-70
2021/12/01 16:32:07;;;;;;;0.50;0.50;;;;;;;;;;5016069;28;20295;-70
2021/12/01 16:34:54;;;;;;;0.70;0.70;;;;;;;;;;5016960;28;20242;-69
2021/12/01 16:37:42;;;;;;;0.60;0.60;;;;;;;;;;5016747;28;20296;-70
2021/12/01 16:40:32;;;;;;;0.60;0.60;;;;;;;;;;5016089;28;20236;-70
2021/12/01 16:43:22;;;;;;;0.70;0.70;;;;;;;;;;5016907;28;20227;-69
2021/12/01 16:46:09;;;;;;;0.70;0.70;;;;;;;;;;5016465;28;20216;-69
2021/12/01 16:48:56;;;;;;;0.40;0.40;;;;;;;;;;5015609;28;20711;-68
2021/12/01 16:51:44;;;;;;;0.60;0.60;;;;;;;;;;5016150;28;20574;-70
2021/12/01 16:54:31;;;;;;;0.80;0.80;;;;;;;;;;5016019;28;20206;-68
2021/12/01 16:57:19;;;;;;;0.57;0.57;;;;;;;;;;5016154;28;20244;-68